sensor_id;sensor_type;location;lat;lon;timestamp;pressure;altitude;pressure_sealevel;temperature;humidity
46394;BME280;32099;53.588;10.176;2023-02-13T00:01:26;103459.94;;;8.46;86.28
46394;BME280;32099;53.588;10.176;2023-02-13T00:03:52;103458.38;;;8.42;86.75
46394;BME280;32099;53.588;10.176;2023-02-13T00:06:17;103455.47;;;8.45;86.36
46394;BME280;32099;53.588;10.176;2023-02-13T00:08:42;103462.50;;;8.49;86.33
46394;BME280;32099;53.588;10.176;2023-02-13T00:11:07;103460.78;;;8.47;86.20
46394;BME280;32099;53.588;10.176;2023-02-13T00:13:33;103460.06;;;8.45;86.57
46394;BME280;32099;53.588;10.176;2023-02-13T00:16:00;103463.47;;;8.48;86.21
46394;BME280;32099;53.588;10.176;2023-02-13T00:18:27;103455.31;;;8.48;86.52
46394;BME280;32099;53.588;10.176;2023-02-13T00:21:00;103459.84;;;8.48;86.51
46394;BME280;32099;53.588;10.176;2023-02-13T00:23:28;103451.97;;;8.43;86.92
46394;BME280;32099;53.588;10.176;2023-02-13T00:25:55;103451.00;;;8.44;86.63
46394;BME280;32099;53.588;10.176;2023-02-13T00:28:21;103451.97;;;8.43;86.86
46394;BME280;32099;53.588;10.176;2023-02-13T00:30:46;103444.72;;;8.44;86.85
46394;BME280;32099;53.588;10.176;2023-02-13T00:33:12;103438.81;;;8.37;86.67
46394;BME280;32099;53.588;10.176;2023-02-13T00:35:37;103451.13;;;8.43;86.99
46394;BME280;32099;53.588;10.176;2023-02-13T00:38:02;103442.06;;;8.42;86.98
46394;BME280;32099;53.588;10.176;2023-02-13T00:40:28;103442.84;;;8.44;86.50
46394;BME280;32099;53.588;10.176;2023-02-13T00:42:53;103447.31;;;8.45;86.74
46394;BME280;32099;53.588;10.176;2023-02-13T00:45:18;103443.63;;;8.46;86.61
46394;BME280;32099;53.588;10.176;2023-02-13T00:47:44;103442.72;;;8.46;86.80
46394;BME280;32099;53.588;10.176;2023-02-13T00:50:09;103450.88;;;8.46;86.70
46394;BME280;32099;53.588;10.176;2023-02-13T00:52:34;103447.31;;;8.45;86.61
46394;BME280;32099;53.588;10.176;2023-02-13T00:55:00;103446.34;;;8.46;86.71
46394;BME280;32099;53.588;10.176;2023-02-13T00:57:25;103442.84;;;8.44;86.48
46394;BME280;32099;53.588;10.176;2023-02-13T00:59:50;103446.72;;;8.40;86.84
46394;BME280;32099;53.588;10.176;2023-02-13T01:02:15;103453.91;;;8.41;86.92
46394;BME280;32099;53.588;10.176;2023-02-13T01:04:41;103443.94;;;8.42;86.99
46394;BME280;32099;53.588;10.176;2023-02-13T01:07:06;103441.28;;;8.40;86.60
46394;BME280;32099;53.588;10.176;2023-02-13T01:09:31;103439.47;;;8.41;86.78
46394;BME280;32099;53.588;10.176;2023-02-13T01:11:56;103440.25;;;8.43;86.52
46394;BME280;32099;53.588;10.176;2023-02-13T01:14:22;103434.88;;;8.41;86.71
46394;BME280;32099;53.588;10.176;2023-02-13T01:16:47;103433.13;;;8.40;86.72
46394;BME280;32099;53.588;10.176;2023-02-13T01:19:12;103434.34;;;8.36;86.92
46394;BME280;32099;53.588;10.176;2023-02-13T01:21:38;103437.91;;;8.37;86.68
46394;BME280;32099;53.588;10.176;2023-02-13T01:24:03;103431.63;;;8.36;86.60
46394;BME280;32099;53.588;10.176;2023-02-13T01:26:29;103428.78;;;8.38;86.91
46394;BME280;32099;53.588;10.176;2023-02-13T01:28:54;103434.22;;;8.38;86.81
46394;BME280;32099;53.588;10.176;2023-02-13T01:31:21;103426.06;;;8.38;86.53
46394;BME280;32099;53.588;10.176;2023-02-13T01:33:47;103434.88;;;8.41;86.56
46394;BME280;32099;53.588;10.176;2023-02-13T01:36:12;103427.81;;;8.39;86.27
46394;BME280;32099;53.588;10.176;2023-02-13T01:38:38;103429.09;;;8.33;86.48
46394;BME280;32099;53.588;10.176;2023-02-13T01:41:04;103429.28;;;8.30;87.00
46394;BME280;32099;53.588;10.176;2023-02-13T01:46:07;103423.00;;;8.29;86.93
46394;BME280;32099;53.588;10.176;2023-02-13T01:48:32;103429.09;;;8.33;86.42
46394;BME280;32099;53.588;10.176;2023-02-13T01:51:00;103413.09;;;8.28;86.44
46394;BME280;32099;53.588;10.176;2023-02-13T01:53:34;103417.75;;;8.26;86.83
46394;BME280;32099;53.588;10.176;2023-02-13T01:56:26;103414.94;;;8.28;86.71
46394;BME280;32099;53.588;10.176;2023-02-13T01:58:53;103413.88;;;8.30;86.30
46394;BME280;32099;53.588;10.176;2023-02-13T02:01:23;103404.81;;;8.30;86.12
46394;BME280;32099;53.588;10.176;2023-02-13T02:03:52;103399.69;;;8.25;86.10
46394;BME280;32099;53.588;10.176;2023-02-13T02:06:53;103410.50;;;8.27;86.43
46394;BME280;32099;53.588;10.176;2023-02-13T02:09:14;103398.53;;;8.29;86.25
46394;BME280;32099;53.588;10.176;2023-02-13T02:11:51;103401.25;;;8.29;85.77
46394;BME280;32099;53.588;10.176;2023-02-13T02:14:23;103395.16;;;8.26;85.89
46394;BME280;32099;53.588;10.176;2023-02-13T02:16:49;103401.34;;;8.28;86.12
46394;BME280;32099;53.588;10.176;2023-02-13T02:21:59;103395.69;;;8.31;85.91
46394;BME280;32099;53.588;10.176;2023-02-13T02:28:16;103398.84;;;8.25;85.49
46394;BME280;32099;53.588;10.176;2023-02-13T02:33:12;103403.19;;;8.27;85.50
46394;BME280;32099;53.588;10.176;2023-02-13T02:35:53;103404.06;;;8.28;85.28
46394;BME280;32099;53.588;10.176;2023-02-13T02:44:19;103397.22;;;8.22;85.43
46394;BME280;32099;53.588;10.176;2023-02-13T02:49:49;103389.06;;;8.22;85.18
46394;BME280;32099;53.588;10.176;2023-02-13T02:52:26;103390.88;;;8.22;84.90
46394;BME280;32099;53.588;10.176;2023-02-13T02:55:05;103393.78;;;8.18;85.04
46394;BME280;32099;53.588;10.176;2023-02-13T02:57:39;103389.31;;;8.17;85.03
46394;BME280;32099;53.588;10.176;2023-02-13T03:00:26;103385.94;;;8.14;85.05
46394;BME280;32099;53.588;10.176;2023-02-13T03:03:16;103390.41;;;8.15;84.60
46394;BME280;32099;53.588;10.176;2023-02-13T03:06:03;103384.19;;;8.13;84.42
46394;BME280;32099;53.588;10.176;2023-02-13T03:08:54;103390.59;;;8.12;84.38
46394;BME280;32099;53.588;10.176;2023-02-13T03:11:43;103385.09;;;8.13;84.67
46394;BME280;32099;53.588;10.176;2023-02-13T03:14:32;103389.63;;;8.13;84.59
46394;BME280;32099;53.588;10.176;2023-02-13T03:16:57;103385.28;;;8.10;84.21
46394;BME280;32099;53.588;10.176;2023-02-13T03:20:07;103389.75;;;8.11;84.27
46394;BME280;32099;53.588;10.176;2023-02-13T03:23:06;103385.09;;;8.13;84.16
46394;BME280;32099;53.588;10.176;2023-02-13T03:25:51;103390.53;;;8.13;84.21
46394;BME280;32099;53.588;10.176;2023-02-13T03:28:56;103384.97;;;8.15;83.90
46394;BME280;32099;53.588;10.176;2023-02-13T03:31:57;103390.84;;;8.09;84.06
46394;BME280;32099;53.588;10.176;2023-02-13T03:34:56;103389.28;;;8.05;84.17
46394;BME280;32099;53.588;10.176;2023-02-13T03:37:47;103387.53;;;8.03;84.24
46394;BME280;32099;53.588;10.176;2023-02-13T03:42:45;103388.44;;;8.04;83.81
46394;BME280;32099;53.588;10.176;2023-02-13T03:45:29;103401.25;;;8.02;83.99
46394;BME280;32099;53.588;10.176;2023-02-13T03:48:20;103397.09;;;7.96;84.30
46394;BME280;32099;53.588;10.176;2023-02-13T03:53:55;103394.56;;;7.93;84.13
46394;BME280;32099;53.588;10.176;2023-02-13T03:56:24;103402.03;;;7.90;84.04
46394;BME280;32099;53.588;10.176;2023-02-13T03:59:15;103406.59;;;7.89;84.36
46394;BME280;32099;53.588;10.176;2023-02-13T04:04:41;103404.84;;;7.88;83.82
46394;BME280;32099;53.588;10.176;2023-02-13T04:07:14;103401.16;;;7.89;84.35
46394;BME280;32099;53.588;10.176;2023-02-13T04:09:53;103402.72;;;7.93;84.27
46394;BME280;32099;53.588;10.176;2023-02-13T04:12:22;103408.03;;;7.95;83.74
46394;BME280;32099;53.588;10.176;2023-02-13T04:15:11;103400.00;;;7.93;83.92
46394;BME280;32099;53.588;10.176;2023-02-13T04:17:45;103406.19;;;7.95;84.07
46394;BME280;32099;53.588;10.176;2023-02-13T04:20:16;103404.47;;;7.94;83.80
46394;BME280;32099;53.588;10.176;2023-02-13T04:22:43;103399.88;;;7.95;83.50
46394;BME280;32099;53.588;10.176;2023-02-13T04:25:12;103402.81;;;7.92;83.24
46394;BME280;32099;53.588;10.176;2023-02-13T04:27:40;103399.41;;;7.88;83.58
46394;BME280;32099;53.588;10.176;2023-02-13T04:30:06;103400.41;;;7.87;83.27
46394;BME280;32099;53.588;10.176;2023-02-13T04:32:33;103393.22;;;7.86;83.40
46394;BME280;32099;53.588;10.176;2023-02-13T04:34:58;103390.69;;;7.83;83.64
46394;BME280;32099;53.588;10.176;2023-02-13T04:37:23;103391.47;;;7.85;83.05
46394;BME280;32099;53.588;10.176;2023-02-13T04:39:49;103393.59;;;7.80;83.28
46394;BME280;32099;53.588;10.176;2023-02-13T04:42:14;103401.75;;;7.80;83.10
46394;BME280;32099;53.588;10.176;2023-02-13T04:44:39;103409.91;;;7.80;83.52
46394;BME280;32099;53.588;10.176;2023-02-13T04:47:05;103403.69;;;7.78;83.52
46394;BME280;32099;53.588;10.176;2023-02-13T04:49:30;103395.53;;;7.78;83.31
46394;BME280;32099;53.588;10.176;2023-02-13T04:51:55;103406.41;;;7.78;83.14
46394;BME280;32099;53.588;10.176;2023-02-13T04:54:20;103398.25;;;7.78;83.19
46394;BME280;32099;53.588;10.176;2023-02-13T04:56:46;103400.22;;;7.76;83.24
46394;BME280;32099;53.588;10.176;2023-02-13T04:59:11;103399.22;;;7.77;83.30
46394;BME280;32099;53.588;10.176;2023-02-13T05:01:36;103406.53;;;7.76;83.58
46394;BME280;32099;53.588;10.176;2023-02-13T05:04:01;103408.38;;;7.76;83.01
46394;BME280;32099;53.588;10.176;2023-02-13T05:06:27;103411.09;;;7.76;83.08
46394;BME280;32099;53.588;10.176;2023-02-13T05:08:52;103402.84;;;7.77;82.97
46394;BME280;32099;53.588;10.176;2023-02-13T05:11:17;103396.31;;;7.80;82.63
46394;BME280;32099;53.588;10.176;2023-02-13T05:13:43;103399.03;;;7.80;82.60
46394;BME280;32099;53.588;10.176;2023-02-13T05:16:08;103403.50;;;7.81;83.16
46394;BME280;32099;53.588;10.176;2023-02-13T05:18:33;103395.16;;;7.84;82.81
46394;BME280;32099;53.588;10.176;2023-02-13T05:20:58;103406.03;;;7.84;82.66
46394;BME280;32099;53.588;10.176;2023-02-13T05:23:42;103405.38;;;7.80;83.07
46394;BME280;32099;53.588;10.176;2023-02-13T05:26:08;103400.97;;;7.78;83.01
46394;BME280;32099;53.588;10.176;2023-02-13T05:28:33;103397.28;;;7.79;82.51
46394;BME280;32099;53.588;10.176;2023-02-13T05:31:17;103396.44;;;7.78;82.45
46394;BME280;32099;53.588;10.176;2023-02-13T05:33:42;103393.78;;;7.77;81.88
46394;BME280;32099;53.588;10.176;2023-02-13T05:36:07;103400.13;;;7.77;81.97
46394;BME280;32099;53.588;10.176;2023-02-13T05:38:32;103391.97;;;7.77;82.09
46394;BME280;32099;53.588;10.176;2023-02-13T05:40:58;103397.28;;;7.79;82.01
46394;BME280;32099;53.588;10.176;2023-02-13T05:43:24;103402.25;;;7.72;82.69
46394;BME280;32099;53.588;10.176;2023-02-13T05:45:50;103405.84;;;7.72;82.71
46394;BME280;32099;53.588;10.176;2023-02-13T05:48:16;103402.25;;;7.72;82.89
46394;BME280;32099;53.588;10.176;2023-02-13T05:50:41;103401.28;;;7.73;82.50
46394;BME280;32099;53.588;10.176;2023-02-13T05:53:07;103404.78;;;7.75;82.52
46394;BME280;32099;53.588;10.176;2023-02-13T05:55:32;103406.41;;;7.78;82.35
46394;BME280;32099;53.588;10.176;2023-02-13T05:57:57;103411.97;;;7.76;82.45
46394;BME280;32099;53.588;10.176;2023-02-13T06:00:23;103408.47;;;7.74;82.30
46394;BME280;32099;53.588;10.176;2023-02-13T06:02:49;103413.03;;;7.74;82.20
46394;BME280;32099;53.588;10.176;2023-02-13T06:05:14;103413.22;;;7.70;82.11
46394;BME280;32099;53.588;10.176;2023-02-13T06:07:39;103414.09;;;7.71;82.11
46394;BME280;32099;53.588;10.176;2023-02-13T06:10:05;103414.97;;;7.71;82.18
46394;BME280;32099;53.588;10.176;2023-02-13T06:12:31;103413.41;;;7.67;82.36
46394;BME280;32099;53.588;10.176;2023-02-13T06:14:56;103404.41;;;7.67;81.91
46394;BME280;32099;53.588;10.176;2023-02-13T06:17:21;103408.09;;;7.66;82.23
46394;BME280;32099;53.588;10.176;2023-02-13T06:19:46;103403.81;;;7.62;82.11
46394;BME280;32099;53.588;10.176;2023-02-13T06:22:12;103408.09;;;7.66;82.08
46394;BME280;32099;53.588;10.176;2023-02-13T06:24:37;103411.59;;;7.68;82.23
46394;BME280;32099;53.588;10.176;2023-02-13T06:27:02;103410.50;;;7.70;82.05
46394;BME280;32099;53.588;10.176;2023-02-13T06:29:28;103402.25;;;7.72;81.90
46394;BME280;32099;53.588;10.176;2023-02-13T06:31:55;103415.75;;;7.74;81.53
46394;BME280;32099;53.588;10.176;2023-02-13T06:34:21;103405.75;;;7.74;81.38
46394;BME280;32099;53.588;10.176;2023-02-13T06:36:46;103415.66;;;7.75;81.26
46394;BME280;32099;53.588;10.176;2023-02-13T06:39:12;103414.00;;;7.72;81.59
46394;BME280;32099;53.588;10.176;2023-02-13T06:41:37;103421.19;;;7.74;81.39
46394;BME280;32099;53.588;10.176;2023-02-13T06:44:02;103423.97;;;7.72;81.47
46394;BME280;32099;53.588;10.176;2023-02-13T06:46:28;103428.84;;;7.67;81.56
46394;BME280;32099;53.588;10.176;2023-02-13T06:48:53;103427.41;;;7.61;82.08
46394;BME280;32099;53.588;10.176;2023-02-13T06:51:18;103428.38;;;7.60;82.59
46394;BME280;32099;53.588;10.176;2023-02-13T06:53:43;103436.53;;;7.60;82.43
46394;BME280;32099;53.588;10.176;2023-02-13T06:56:09;103449.22;;;7.60;82.73
46394;BME280;32099;53.588;10.176;2023-02-13T06:58:35;103452.03;;;7.58;82.65
46394;BME280;32099;53.588;10.176;2023-02-13T07:01:00;103445.75;;;7.57;82.74
46394;BME280;32099;53.588;10.176;2023-02-13T07:03:26;103445.63;;;7.59;82.23
46394;BME280;32099;53.588;10.176;2023-02-13T07:05:51;103458.13;;;7.62;81.91
46394;BME280;32099;53.588;10.176;2023-02-13T07:08:16;103451.75;;;7.63;81.97
46394;BME280;32099;53.588;10.176;2023-02-13T07:10:42;103455.53;;;7.60;82.08
46394;BME280;32099;53.588;10.176;2023-02-13T07:13:08;103453.97;;;7.56;82.27
46394;BME280;32099;53.588;10.176;2023-02-13T07:15:34;103461.34;;;7.54;82.58
46394;BME280;32099;53.588;10.176;2023-02-13T07:18:00;103455.03;;;7.53;82.82
46394;BME280;32099;53.588;10.176;2023-02-13T07:20:26;103456.69;;;7.56;82.55
46394;BME280;32099;53.588;10.176;2023-02-13T07:22:51;103459.22;;;7.59;82.95
46394;BME280;32099;53.588;10.176;2023-02-13T07:25:17;103456.50;;;7.59;82.78
46394;BME280;32099;53.588;10.176;2023-02-13T07:27:43;103458.34;;;7.59;82.29
46394;BME280;32099;53.588;10.176;2023-02-13T07:30:08;103461.75;;;7.62;82.28
46394;BME280;32099;53.588;10.176;2023-02-13T07:32:34;103464.34;;;7.64;82.11
46394;BME280;32099;53.588;10.176;2023-02-13T07:34:59;103459.59;;;7.67;82.05
46394;BME280;32099;53.588;10.176;2023-02-13T07:37:26;103470.56;;;7.66;82.05
46394;BME280;32099;53.588;10.176;2023-02-13T07:39:52;103466.22;;;7.63;81.86
46394;BME280;32099;53.588;10.176;2023-02-13T07:42:17;103463.69;;;7.60;81.99
46394;BME280;32099;53.588;10.176;2023-02-13T07:44:43;103469.13;;;7.60;81.91
46394;BME280;32099;53.588;10.176;2023-02-13T07:47:08;103469.78;;;7.64;81.74
46394;BME280;32099;53.588;10.176;2023-02-13T07:49:34;103490.16;;;7.71;81.67
46394;BME280;32099;53.588;10.176;2023-02-13T07:52:00;103485.50;;;7.73;81.44
46394;BME280;32099;53.588;10.176;2023-02-13T07:54:26;103481.91;;;7.72;80.77
46394;BME280;32099;53.588;10.176;2023-02-13T07:56:51;103477.25;;;7.75;80.31
46394;BME280;32099;53.588;10.176;2023-02-13T07:59:16;103473.78;;;7.72;80.61
46394;BME280;32099;53.588;10.176;2023-02-13T08:01:42;103477.06;;;7.78;80.66
46394;BME280;32099;53.588;10.176;2023-02-13T08:04:07;103473.28;;;7.80;80.88
46394;BME280;32099;53.588;10.176;2023-02-13T08:06:32;103480.06;;;7.73;80.96
46394;BME280;32099;53.588;10.176;2023-02-13T08:08:58;103484.53;;;7.74;81.59
46394;BME280;32099;53.588;10.176;2023-02-13T08:11:42;103490.56;;;7.79;81.49
46394;BME280;32099;53.588;10.176;2023-02-13T08:14:20;103493.06;;;7.82;81.63
46394;BME280;32099;53.588;10.176;2023-02-13T08:16:46;103491.91;;;7.86;81.31
46394;BME280;32099;53.588;10.176;2023-02-13T08:19:12;103491.72;;;7.90;80.91
46394;BME280;32099;53.588;10.176;2023-02-13T08:21:37;103495.28;;;7.90;81.01
46394;BME280;32099;53.588;10.176;2023-02-13T08:24:04;103498.72;;;7.94;80.49
46394;BME280;32099;53.588;10.176;2023-02-13T08:26:30;103489.66;;;7.93;80.90
46394;BME280;32099;53.588;10.176;2023-02-13T08:28:56;103495.00;;;7.95;80.83
46394;BME280;32099;53.588;10.176;2023-02-13T08:31:21;103487.44;;;8.00;80.42
46394;BME280;32099;53.588;10.176;2023-02-13T08:33:46;103484.53;;;8.03;80.21
46394;BME280;32099;53.588;10.176;2023-02-13T08:36:11;103491.59;;;8.06;79.77
46394;BME280;32099;53.588;10.176;2023-02-13T08:38:37;103489.66;;;8.08;80.29
46394;BME280;32099;53.588;10.176;2023-02-13T08:41:02;103491.59;;;8.06;80.01
46394;BME280;32099;53.588;10.176;2023-02-13T08:43:27;103495.94;;;8.08;79.97
46394;BME280;32099;53.588;10.176;2023-02-13T08:45:52;103496.91;;;8.07;80.18
46394;BME280;32099;53.588;10.176;2023-02-13T08:48:18;103505.78;;;8.11;79.19
46394;BME280;32099;53.588;10.176;2023-02-13T08:50:43;103492.94;;;8.13;79.56
46394;BME280;32099;53.588;10.176;2023-02-13T08:53:08;103490.22;;;8.13;79.68
46394;BME280;32099;53.588;10.176;2023-02-13T08:55:33;103493.34;;;8.07;78.86
46394;BME280;32099;53.588;10.176;2023-02-13T08:57:59;103481.22;;;7.98;78.98
46394;BME280;32099;53.588;10.176;2023-02-13T09:00:26;103491.78;;;8.02;79.70
46394;BME280;32099;53.588;10.176;2023-02-13T09:02:51;103487.00;;;8.06;79.69
46394;BME280;32099;53.588;10.176;2023-02-13T09:05:16;103484.28;;;8.06;79.59
46394;BME280;32099;53.588;10.176;2023-02-13T09:07:42;103480.31;;;8.12;78.60
46394;BME280;32099;53.588;10.176;2023-02-13T09:10:07;103484.38;;;8.19;79.50
46394;BME280;32099;53.588;10.176;2023-02-13T09:12:32;103485.91;;;8.23;79.85
46394;BME280;32099;53.588;10.176;2023-02-13T09:14:58;103488.56;;;8.25;79.46
46394;BME280;32099;53.588;10.176;2023-02-13T09:17:23;103486.91;;;8.22;79.14
46394;BME280;32099;53.588;10.176;2023-02-13T09:19:48;103492.56;;;8.19;79.05
46394;BME280;32099;53.588;10.176;2023-02-13T09:22:14;103488.19;;;8.16;78.97
46394;BME280;32099;53.588;10.176;2023-02-13T09:24:40;103485.47;;;8.16;78.51
46394;BME280;32099;53.588;10.176;2023-02-13T09:27:06;103484.78;;;8.13;78.99
46394;BME280;32099;53.588;10.176;2023-02-13T09:29:32;103493.81;;;8.13;79.54
46394;BME280;32099;53.588;10.176;2023-02-13T09:31:58;103495.34;;;8.17;79.49
46394;BME280;32099;53.588;10.176;2023-02-13T09:34:23;103508.66;;;8.22;78.45
46394;BME280;32099;53.588;10.176;2023-02-13T09:36:51;103502.16;;;8.25;78.54
46394;BME280;32099;53.588;10.176;2023-02-13T09:39:21;103501.84;;;8.29;78.85
46394;BME280;32099;53.588;10.176;2023-02-13T09:41:47;103499.00;;;8.31;78.99
46394;BME280;32099;53.588;10.176;2023-02-13T09:44:33;103499.00;;;8.31;79.13
46394;BME280;32099;53.588;10.176;2023-02-13T09:49:53;103503.28;;;8.35;78.59
46394;BME280;32099;53.588;10.176;2023-02-13T09:52:24;103499.47;;;8.38;78.60
46394;BME280;32099;53.588;10.176;2023-02-13T09:54:55;103493.19;;;8.37;78.80
46394;BME280;32099;53.588;10.176;2023-02-13T09:57:34;103495.91;;;8.37;78.94
46394;BME280;32099;53.588;10.176;2023-02-13T10:05:33;103486.06;;;8.49;78.36
46394;BME280;32099;53.588;10.176;2023-02-13T10:10:52;103485.78;;;8.54;77.23
46394;BME280;32099;53.588;10.176;2023-02-13T10:16:08;103475.97;;;8.51;76.92
46394;BME280;32099;53.588;10.176;2023-02-13T10:21:49;103472.66;;;8.46;76.50
46394;BME280;32099;53.588;10.176;2023-02-13T10:24:25;103465.69;;;8.42;76.33
46394;BME280;32099;53.588;10.176;2023-02-13T10:26:55;103471.22;;;8.40;76.49
46394;BME280;32099;53.588;10.176;2023-02-13T10:32:09;103474.81;;;8.41;76.94
46394;BME280;32099;53.588;10.176;2023-02-13T10:34:43;103480.13;;;8.42;77.46
46394;BME280;32099;53.588;10.176;2023-02-13T10:37:16;103481.81;;;8.45;76.37
46394;BME280;32099;53.588;10.176;2023-02-13T10:39:44;103485.00;;;8.52;77.67
46394;BME280;32099;53.588;10.176;2023-02-13T10:47:43;103484.50;;;8.59;76.22
46394;BME280;32099;53.588;10.176;2023-02-13T10:50:23;103470.22;;;8.56;76.32
46394;BME280;32099;53.588;10.176;2023-02-13T11:04:07;103474.97;;;8.67;75.50
46394;BME280;32099;53.588;10.176;2023-02-13T11:06:36;103477.44;;;8.70;76.96
46394;BME280;32099;53.588;10.176;2023-02-13T11:09:06;103476.28;;;8.74;75.99
46394;BME280;32099;53.588;10.176;2023-02-13T11:19:51;103468.44;;;8.69;76.52
46394;BME280;32099;53.588;10.176;2023-02-13T11:22:27;103455.38;;;8.74;74.80
46394;BME280;32099;53.588;10.176;2023-02-13T11:24:58;103452.97;;;8.70;75.04
46394;BME280;32099;53.588;10.176;2023-02-13T11:27:34;103451.91;;;8.72;74.73
46394;BME280;32099;53.588;10.176;2023-02-13T11:30:06;103460.72;;;8.76;75.86
46394;BME280;32099;53.588;10.176;2023-02-13T11:32:59;103446.59;;;8.84;75.99
46394;BME280;32099;53.588;10.176;2023-02-13T11:35:45;103441.03;;;8.85;75.08
46394;BME280;32099;53.588;10.176;2023-02-13T11:40:40;103451.41;;;8.93;75.93
46394;BME280;32099;53.588;10.176;2023-02-13T11:43:13;103459.44;;;8.94;76.05
46394;BME280;32099;53.588;10.176;2023-02-13T11:45:42;103463.72;;;8.99;75.47
46394;BME280;32099;53.588;10.176;2023-02-13T11:48:08;103460.66;;;9.03;75.39
46394;BME280;32099;53.588;10.176;2023-02-13T11:50:44;103466.56;;;9.10;75.36
46394;BME280;32099;53.588;10.176;2023-02-13T11:53:20;103460.66;;;9.16;75.55
46394;BME280;32099;53.588;10.176;2023-02-13T11:56:11;103459.38;;;9.22;75.09
46394;BME280;32099;53.588;10.176;2023-02-13T11:58:39;103453.06;;;9.21;74.42
46394;BME280;32099;53.588;10.176;2023-02-13T12:04:04;103450.56;;;9.18;74.93
46394;BME280;32099;53.588;10.176;2023-02-13T12:06:40;103452.19;;;9.21;73.97
46394;BME280;32099;53.588;10.176;2023-02-13T12:09:22;103446.19;;;9.16;74.62
46394;BME280;32099;53.588;10.176;2023-02-13T12:11:48;103444.47;;;9.15;74.84
46394;BME280;32099;53.588;10.176;2023-02-13T12:14:19;103437.91;;;9.17;74.86
46394;BME280;32099;53.588;10.176;2023-02-13T12:16:54;103434.97;;;9.20;74.32
46394;BME280;32099;53.588;10.176;2023-02-13T12:19:45;103443.16;;;9.20;71.27
46394;BME280;32099;53.588;10.176;2023-02-13T12:30:33;103444.91;;;9.21;73.82
46394;BME280;32099;53.588;10.176;2023-02-13T12:35:50;103424.22;;;9.19;73.98
46394;BME280;32099;53.588;10.176;2023-02-13T12:41:16;103419.41;;;9.22;73.67
46394;BME280;32099;53.588;10.176;2023-02-13T12:47:06;103405.03;;;9.20;71.70
46394;BME280;32099;53.588;10.176;2023-02-13T12:52:47;103420.41;;;9.08;73.95
46394;BME280;32099;53.588;10.176;2023-02-13T12:55:27;103415.94;;;9.07;74.49
46394;BME280;32099;53.588;10.176;2023-02-13T12:58:16;103423.84;;;9.10;75.17
46394;BME280;32099;53.588;10.176;2023-02-13T13:04:26;103415.59;;;9.12;74.11
46394;BME280;32099;53.588;10.176;2023-02-13T13:09:58;103419.31;;;9.11;74.48
46394;BME280;32099;53.588;10.176;2023-02-13T13:16:08;103420.81;;;9.02;73.13
46394;BME280;32099;53.588;10.176;2023-02-13T13:18:56;103413.09;;;8.96;73.79
46394;BME280;32099;53.588;10.176;2023-02-13T13:21:34;103407.84;;;8.93;74.46
46394;BME280;32099;53.588;10.176;2023-02-13T13:26:54;103403.81;;;8.99;74.27
46394;BME280;32099;53.588;10.176;2023-02-13T13:29:23;103405.38;;;9.03;75.01
46394;BME280;32099;53.588;10.176;2023-02-13T13:32:00;103401.75;;;9.02;74.46
46394;BME280;32099;53.588;10.176;2023-02-13T13:34:31;103403.19;;;9.08;74.87
46394;BME280;32099;53.588;10.176;2023-02-13T13:37:01;103404.16;;;9.07;74.03
46394;BME280;32099;53.588;10.176;2023-02-13T13:39:49;103395.66;;;9.11;74.63
46394;BME280;32099;53.588;10.176;2023-02-13T13:42:28;103397.31;;;9.14;74.25
46394;BME280;32099;53.588;10.176;2023-02-13T13:50:41;103405.91;;;9.08;74.37
46394;BME280;32099;53.588;10.176;2023-02-13T13:53:10;103405.03;;;9.07;74.63
46394;BME280;32099;53.588;10.176;2023-02-13T13:58:23;103402.06;;;9.10;74.88
46394;BME280;32099;53.588;10.176;2023-02-13T14:01:14;103410.03;;;9.14;74.99
46394;BME280;32099;53.588;10.176;2023-02-13T14:03:51;103413.75;;;9.13;73.72
46394;BME280;32099;53.588;10.176;2023-02-13T14:06:28;103405.78;;;9.09;72.68
46394;BME280;32099;53.588;10.176;2023-02-13T14:09:04;103406.34;;;9.02;73.46
46394;BME280;32099;53.588;10.176;2023-02-13T14:11:40;103400.22;;;8.98;74.35
46394;BME280;32099;53.588;10.176;2023-02-13T14:16:50;103407.41;;;8.99;73.58
46394;BME280;32099;53.588;10.176;2023-02-13T14:19:27;103404.47;;;8.89;72.60
46394;BME280;32099;53.588;10.176;2023-02-13T14:22:24;103403.81;;;8.86;73.17
46394;BME280;32099;53.588;10.176;2023-02-13T14:25:02;103403.25;;;8.80;73.76
46394;BME280;32099;53.588;10.176;2023-02-13T14:30:05;103407.59;;;8.83;74.01
46394;BME280;32099;53.588;10.176;2023-02-13T14:32:49;103402.94;;;8.85;74.22
46394;BME280;32099;53.588;10.176;2023-02-13T14:35:25;103399.13;;;8.88;73.39
46394;BME280;32099;53.588;10.176;2023-02-13T14:37:54;103409.34;;;8.84;72.72
46394;BME280;32099;53.588;10.176;2023-02-13T14:40:30;103404.03;;;8.83;72.90
46394;BME280;32099;53.588;10.176;2023-02-13T14:43:20;103406.75;;;8.83;73.75
46394;BME280;32099;53.588;10.176;2023-02-13T14:45:54;103400.22;;;8.85;74.07
46394;BME280;32099;53.588;10.176;2023-02-13T14:48:28;103407.53;;;8.85;74.01
46394;BME280;32099;53.588;10.176;2023-02-13T14:51:04;103399.25;;;8.86;73.66
46394;BME280;32099;53.588;10.176;2023-02-13T14:53:30;103400.00;;;8.88;72.85
46394;BME280;32099;53.588;10.176;2023-02-13T14:56:06;103393.78;;;8.86;72.44
46394;BME280;32099;53.588;10.176;2023-02-13T14:58:39;103398.47;;;8.84;73.36
46394;BME280;32099;53.588;10.176;2023-02-13T15:01:31;103391.41;;;8.82;72.79
46394;BME280;32099;53.588;10.176;2023-02-13T15:04:05;103388.03;;;8.78;72.58
46394;BME280;32099;53.588;10.176;2023-02-13T15:06:39;103382.13;;;8.71;73.25
46394;BME280;32099;53.588;10.176;2023-02-13T15:09:24;103381.78;;;8.63;73.03
46394;BME280;32099;53.588;10.176;2023-02-13T15:11:53;103383.84;;;8.59;73.17
46394;BME280;32099;53.588;10.176;2023-02-13T15:14:34;103383.94;;;8.58;73.96